sensor_id;sensor_type;location;lat;lon;timestamp;pressure;altitude;pressure_sealevel;temperature;humidity
57068;BME280;43391;47.448;18.904;2023-05-02T00:00:25;99791.34;;;9.29;88.37
57068;BME280;43391;47.448;18.904;2023-05-02T00:02:51;99781.53;;;9.38;87.81
57068;BME280;43391;47.448;18.904;2023-05-02T00:05:16;99778.66;;;9.44;87.49
57068;BME280;43391;47.448;18.904;2023-05-02T00:07:42;99789.94;;;9.64;86.17
57068;BME280;43391;47.448;18.904;2023-05-02T00:10:07;99782.03;;;9.67;84.59
57068;BME280;43391;47.448;18.904;2023-05-02T00:12:33;99783.50;;;9.73;83.49
57068;BME280;43391;47.448;18.904;2023-05-02T00:14:58;99781.75;;;9.73;85.39
57068;BME280;43391;47.448;18.904;2023-05-02T00:17:24;99785.97;;;9.76;84.71
57068;BME280;43391;47.448;18.904;2023-05-02T00:19:49;99770.47;;;9.74;84.08
57068;BME280;43391;47.448;18.904;2023-05-02T00:22:14;99772.78;;;9.80;83.53
57068;BME280;43391;47.448;18.904;2023-05-02T00:24:40;99778.03;;;9.79;84.65
57068;BME280;43391;47.448;18.904;2023-05-02T00:27:05;99778.75;;;9.82;84.07
57068;BME280;43391;47.448;18.904;2023-05-02T00:29:31;99776.75;;;9.68;85.42
57068;BME280;43391;47.448;18.904;2023-05-02T00:31:56;99781.28;;;9.63;86.24
57068;BME280;43391;47.448;18.904;2023-05-02T00:34:23;99787.13;;;9.68;86.10
57068;BME280;43391;47.448;18.904;2023-05-02T00:36:48;99784.28;;;9.75;81.76
57068;BME280;43391;47.448;18.904;2023-05-02T00:39:14;99786.66;;;9.79;80.22
57068;BME280;43391;47.448;18.904;2023-05-02T00:41:39;99776.81;;;9.88;81.46
57068;BME280;43391;47.448;18.904;2023-05-02T00:44:05;99774.13;;;9.89;82.18
57068;BME280;43391;47.448;18.904;2023-05-02T00:46:31;99787.28;;;9.65;82.52
57068;BME280;43391;47.448;18.904;2023-05-02T00:48:56;99781.44;;;9.60;83.03
57068;BME280;43391;47.448;18.904;2023-05-02T00:51:22;99783.75;;;9.66;83.27
57068;BME280;43391;47.448;18.904;2023-05-02T00:53:47;99790.63;;;9.67;83.13
57068;BME280;43391;47.448;18.904;2023-05-02T00:56:13;99784.75;;;9.64;83.17
57068;BME280;43391;47.448;18.904;2023-05-02T00:58:39;99784.22;;;9.55;83.83
57068;BME280;43391;47.448;18.904;2023-05-02T01:04:03;99781.97;;;9.48;84.79
57068;BME280;43391;47.448;18.904;2023-05-02T01:12:07;99789.50;;;9.33;85.03
57068;BME280;43391;47.448;18.904;2023-05-02T01:14:43;99779.91;;;9.35;85.60
57068;BME280;43391;47.448;18.904;2023-05-02T01:17:11;99778.47;;;9.49;84.54
57068;BME280;43391;47.448;18.904;2023-05-02T01:19:42;99779.38;;;9.48;83.99
57068;BME280;43391;47.448;18.904;2023-05-02T01:22:10;99783.56;;;9.50;84.92
57068;BME280;43391;47.448;18.904;2023-05-02T01:27:35;99784.31;;;9.54;83.83
57068;BME280;43391;47.448;18.904;2023-05-02T01:30:01;99781.84;;;9.51;83.45
57068;BME280;43391;47.448;18.904;2023-05-02T01:32:30;99779.19;;;9.52;82.60
57068;BME280;43391;47.448;18.904;2023-05-02T01:34:57;99776.44;;;9.55;82.13
57068;BME280;43391;47.448;18.904;2023-05-02T01:37:23;99774.78;;;9.54;82.49
57068;BME280;43391;47.448;18.904;2023-05-02T01:39:51;99771.66;;;9.67;81.58
57068;BME280;43391;47.448;18.904;2023-05-02T01:42:19;99769.41;;;9.59;80.46
57068;BME280;43391;47.448;18.904;2023-05-02T01:44:45;99773.09;;;9.53;81.92
57068;BME280;43391;47.448;18.904;2023-05-02T01:47:12;99769.78;;;9.50;81.65
57068;BME280;43391;47.448;18.904;2023-05-02T01:49:39;99764.47;;;9.53;82.55
57068;BME280;43391;47.448;18.904;2023-05-02T01:52:08;99767.78;;;9.56;82.60
57068;BME280;43391;47.448;18.904;2023-05-02T01:54:36;99766.16;;;9.54;82.19
57068;BME280;43391;47.448;18.904;2023-05-02T01:57:04;99764.47;;;9.53;83.01
57068;BME280;43391;47.448;18.904;2023-05-02T01:59:32;99771.41;;;9.52;82.55
57068;BME280;43391;47.448;18.904;2023-05-02T02:01:58;99755.06;;;9.50;82.74
57068;BME280;43391;47.448;18.904;2023-05-02T02:04:25;99761.16;;;9.49;83.46
57068;BME280;43391;47.448;18.904;2023-05-02T02:06:57;99768.13;;;9.49;82.80
57068;BME280;43391;47.448;18.904;2023-05-02T02:09:25;99756.91;;;9.48;80.67
57068;BME280;43391;47.448;18.904;2023-05-02T02:11:52;99753.34;;;9.51;80.26
57068;BME280;43391;47.448;18.904;2023-05-02T02:14:24;99750.88;;;9.48;79.26
57068;BME280;43391;47.448;18.904;2023-05-02T02:16:52;99745.78;;;9.46;79.56
57068;BME280;43391;47.448;18.904;2023-05-02T02:19:19;99745.94;;;9.41;80.72
57068;BME280;43391;47.448;18.904;2023-05-02T02:21:46;99750.38;;;9.39;80.05
57068;BME280;43391;47.448;18.904;2023-05-02T02:24:15;99747.84;;;9.38;79.39
57068;BME280;43391;47.448;18.904;2023-05-02T02:26:41;99749.66;;;9.36;78.82
57068;BME280;43391;47.448;18.904;2023-05-02T02:29:07;99747.19;;;9.33;78.93
57068;BME280;43391;47.448;18.904;2023-05-02T02:31:33;99751.63;;;9.30;78.52
57068;BME280;43391;47.448;18.904;2023-05-02T02:34:00;99742.34;;;9.25;79.86
57068;BME280;43391;47.448;18.904;2023-05-02T02:36:44;99742.56;;;9.20;79.88
57068;BME280;43391;47.448;18.904;2023-05-02T02:39:28;99745.06;;;9.22;79.85
57068;BME280;43391;47.448;18.904;2023-05-02T02:42:06;99745.19;;;9.19;80.89
57068;BME280;43391;47.448;18.904;2023-05-02T02:47:10;99747.00;;;9.16;79.83
57068;BME280;43391;47.448;18.904;2023-05-02T02:49:48;99739.59;;;9.09;80.07
57068;BME280;43391;47.448;18.904;2023-05-02T02:52:39;99748.13;;;9.11;80.93
57068;BME280;43391;47.448;18.904;2023-05-02T02:55:19;99743.78;;;9.11;80.63
57068;BME280;43391;47.448;18.904;2023-05-02T02:57:54;99748.31;;;9.06;81.88
57068;BME280;43391;47.448;18.904;2023-05-02T03:00:24;99755.72;;;9.14;81.82
57068;BME280;43391;47.448;18.904;2023-05-02T03:02:53;99752.59;;;9.07;81.93
57068;BME280;43391;47.448;18.904;2023-05-02T03:05:20;99746.94;;;8.97;82.62
57068;BME280;43391;47.448;18.904;2023-05-02T03:07:46;99754.69;;;8.97;82.60
57068;BME280;43391;47.448;18.904;2023-05-02T03:10:12;99750.16;;;9.02;82.74
57068;BME280;43391;47.448;18.904;2023-05-02T03:12:37;99754.69;;;8.97;82.23
57068;BME280;43391;47.448;18.904;2023-05-02T03:18:16;99755.22;;;8.85;83.83
57068;BME280;43391;47.448;18.904;2023-05-02T03:20:42;99758.97;;;8.77;83.61
57068;BME280;43391;47.448;18.904;2023-05-02T03:23:07;99758.00;;;8.80;84.66
57068;BME280;43391;47.448;18.904;2023-05-02T03:25:33;99758.75;;;8.82;84.85
57068;BME280;43391;47.448;18.904;2023-05-02T03:27:58;99747.50;;;8.83;84.54
57068;BME280;43391;47.448;18.904;2023-05-02T03:30:23;99759.78;;;8.78;85.43
57068;BME280;43391;47.448;18.904;2023-05-02T03:32:49;99759.03;;;8.76;86.13
57068;BME280;43391;47.448;18.904;2023-05-02T03:35:14;99764.31;;;8.73;86.22
57068;BME280;43391;47.448;18.904;2023-05-02T03:37:40;99763.53;;;8.71;85.93
57068;BME280;43391;47.448;18.904;2023-05-02T03:40:06;99760.03;;;8.72;86.53
57068;BME280;43391;47.448;18.904;2023-05-02T03:42:33;99758.38;;;8.71;85.65
57068;BME280;43391;47.448;18.904;2023-05-02T03:45:07;99765.16;;;8.73;86.03
57068;BME280;43391;47.448;18.904;2023-05-02T03:47:33;99766.66;;;8.79;86.66
57068;BME280;43391;47.448;18.904;2023-05-02T03:49:58;99767.56;;;8.78;86.76
57068;BME280;43391;47.448;18.904;2023-05-02T03:52:24;99763.19;;;8.80;87.18
57068;BME280;43391;47.448;18.904;2023-05-02T03:54:49;99765.56;;;8.85;86.52
57068;BME280;43391;47.448;18.904;2023-05-02T03:57:16;99774.09;;;8.87;86.45
57068;BME280;43391;47.448;18.904;2023-05-02T03:59:41;99772.09;;;8.94;86.73
57068;BME280;43391;47.448;18.904;2023-05-02T04:02:12;99774.59;;;8.97;85.92
57068;BME280;43391;47.448;18.904;2023-05-02T04:04:38;99777.63;;;9.07;86.66
57068;BME280;43391;47.448;18.904;2023-05-02T04:07:04;99775.19;;;9.03;86.36
57068;BME280;43391;47.448;18.904;2023-05-02T04:09:32;99772.38;;;9.08;85.30
57068;BME280;43391;47.448;18.904;2023-05-02T04:11:57;99775.56;;;9.15;84.83
57068;BME280;43391;47.448;18.904;2023-05-02T04:14:22;99773.81;;;9.15;84.50
57068;BME280;43391;47.448;18.904;2023-05-02T04:16:48;99779.63;;;9.21;85.30
57068;BME280;43391;47.448;18.904;2023-05-02T04:19:15;99783.69;;;9.28;85.52
57068;BME280;43391;47.448;18.904;2023-05-02T04:21:40;99790.53;;;9.29;85.73
57068;BME280;43391;47.448;18.904;2023-05-02T04:24:07;99787.41;;;9.41;84.71
57068;BME280;43391;47.448;18.904;2023-05-02T04:26:33;99787.94;;;9.29;84.03
57068;BME280;43391;47.448;18.904;2023-05-02T04:28:58;99784.63;;;9.04;85.67
57068;BME280;43391;47.448;18.904;2023-05-02T04:31:23;99798.56;;;9.43;86.55
57068;BME280;43391;47.448;18.904;2023-05-02T04:33:49;99791.88;;;9.59;84.86
57068;BME280;43391;47.448;18.904;2023-05-02T04:36:14;99794.56;;;9.76;84.59
57068;BME280;43391;47.448;18.904;2023-05-02T04:38:40;99788.69;;;9.92;84.59
57068;BME280;43391;47.448;18.904;2023-05-02T04:41:06;99794.41;;;10.00;82.90
57068;BME280;43391;47.448;18.904;2023-05-02T04:43:31;99790.41;;;10.12;82.38
57068;BME280;43391;47.448;18.904;2023-05-02T04:45:56;99802.69;;;10.28;81.44
57068;BME280;43391;47.448;18.904;2023-05-02T04:48:22;99801.19;;;10.41;81.29
57068;BME280;43391;47.448;18.904;2023-05-02T04:50:49;99800.66;;;10.54;81.05
57068;BME280;43391;47.448;18.904;2023-05-02T04:53:15;99804.81;;;10.75;81.60
57068;BME280;43391;47.448;18.904;2023-05-02T04:55:40;99809.34;;;11.07;80.87
57068;BME280;43391;47.448;18.904;2023-05-02T04:58:07;99809.81;;;11.33;79.58
57068;BME280;43391;47.448;18.904;2023-05-02T05:00:32;99807.34;;;11.65;77.56
57068;BME280;43391;47.448;18.904;2023-05-02T05:02:58;99813.72;;;11.93;75.63
57068;BME280;43391;47.448;18.904;2023-05-02T05:05:23;99812.00;;;12.10;75.32
57068;BME280;43391;47.448;18.904;2023-05-02T05:07:49;99818.56;;;12.33;74.28
57068;BME280;43391;47.448;18.904;2023-05-02T05:10:16;99812.75;;;12.60;72.60
57068;BME280;43391;47.448;18.904;2023-05-02T05:12:42;99811.13;;;12.74;73.14
57068;BME280;43391;47.448;18.904;2023-05-02T05:15:07;99814.13;;;12.98;72.64
57068;BME280;43391;47.448;18.904;2023-05-02T05:17:33;99825.44;;;13.13;71.44
57068;BME280;43391;47.448;18.904;2023-05-02T05:19:59;99820.00;;;13.33;71.26
57068;BME280;43391;47.448;18.904;2023-05-02T05:22:24;99819.97;;;13.49;71.37
57068;BME280;43391;47.448;18.904;2023-05-02T05:24:53;99822.97;;;13.72;68.32
57068;BME280;43391;47.448;18.904;2023-05-02T05:27:18;99825.47;;;13.88;67.23
57068;BME280;43391;47.448;18.904;2023-05-02T05:29:44;99827.25;;;14.02;66.43
57068;BME280;43391;47.448;18.904;2023-05-02T05:32:09;99834.63;;;14.10;67.32
57068;BME280;43391;47.448;18.904;2023-05-02T05:34:34;99830.31;;;14.23;64.54
57068;BME280;43391;47.448;18.904;2023-05-02T05:37:00;99826.28;;;14.32;64.98
57068;BME280;43391;47.448;18.904;2023-05-02T05:39:26;99831.69;;;14.43;65.62
57068;BME280;43391;47.448;18.904;2023-05-02T05:41:51;99836.13;;;14.56;63.98
57068;BME280;43391;47.448;18.904;2023-05-02T05:44:17;99840.00;;;14.63;64.21
57068;BME280;43391;47.448;18.904;2023-05-02T05:46:42;99839.81;;;14.81;64.02
57068;BME280;43391;47.448;18.904;2023-05-02T05:49:07;99850.50;;;14.91;61.91
57068;BME280;43391;47.448;18.904;2023-05-02T05:51:34;99846.75;;;14.95;60.85
57068;BME280;43391;47.448;18.904;2023-05-02T05:53:59;99849.81;;;15.01;61.08
57068;BME280;43391;47.448;18.904;2023-05-02T05:56:25;99841.25;;;15.12;61.86
57068;BME280;43391;47.448;18.904;2023-05-02T05:58:51;99845.44;;;15.15;60.67
57068;BME280;43391;47.448;18.904;2023-05-02T06:01:16;99849.63;;;15.18;61.10
57068;BME280;43391;47.448;18.904;2023-05-02T06:03:41;99845.03;;;15.21;60.09
57068;BME280;43391;47.448;18.904;2023-05-02T06:06:07;99845.16;;;15.20;59.47
57068;BME280;43391;47.448;18.904;2023-05-02T06:08:33;99858.00;;;15.23;60.52
57068;BME280;43391;47.448;18.904;2023-05-02T06:10:58;99845.16;;;15.33;59.43
57068;BME280;43391;47.448;18.904;2023-05-02T06:13:24;99852.41;;;15.42;59.19
57068;BME280;43391;47.448;18.904;2023-05-02T06:15:50;99853.69;;;15.49;58.91
57068;BME280;43391;47.448;18.904;2023-05-02T06:18:15;99852.50;;;15.53;60.38
57068;BME280;43391;47.448;18.904;2023-05-02T06:20:41;99859.44;;;15.67;59.01
57068;BME280;43391;47.448;18.904;2023-05-02T06:23:06;99835.66;;;15.71;60.59
57068;BME280;43391;47.448;18.904;2023-05-02T06:25:32;99858.50;;;15.81;59.12
57068;BME280;43391;47.448;18.904;2023-05-02T06:27:58;99853.38;;;15.93;58.44
57068;BME280;43391;47.448;18.904;2023-05-02T06:30:23;99850.25;;;16.01;59.04
57068;BME280;43391;47.448;18.904;2023-05-02T06:32:49;99863.53;;;16.11;58.06
57068;BME280;43391;47.448;18.904;2023-05-02T06:35:14;99862.03;;;16.19;56.86
57068;BME280;43391;47.448;18.904;2023-05-02T06:37:40;99864.03;;;16.16;56.36
57068;BME280;43391;47.448;18.904;2023-05-02T06:40:06;99861.28;;;16.30;57.04
57068;BME280;43391;47.448;18.904;2023-05-02T06:42:31;99860.94;;;16.48;55.65
57068;BME280;43391;47.448;18.904;2023-05-02T06:44:57;99855.03;;;16.57;55.84
57068;BME280;43391;47.448;18.904;2023-05-02T06:47:22;99860.50;;;16.54;55.72
57068;BME280;43391;47.448;18.904;2023-05-02T06:49:52;99869.84;;;16.45;54.29
57068;BME280;43391;47.448;18.904;2023-05-02T06:52:18;99864.00;;;16.42;56.40
57068;BME280;43391;47.448;18.904;2023-05-02T06:54:43;99871.16;;;16.64;55.17
57068;BME280;43391;47.448;18.904;2023-05-02T06:57:08;99863.75;;;16.82;54.91
57068;BME280;43391;47.448;18.904;2023-05-02T06:59:35;99865.69;;;17.05;54.36
57068;BME280;43391;47.448;18.904;2023-05-02T07:02:00;99866.50;;;17.05;53.75
57068;BME280;43391;47.448;18.904;2023-05-02T07:04:26;99869.63;;;17.10;53.48
57068;BME280;43391;47.448;18.904;2023-05-02T07:06:51;99860.38;;;17.18;53.41
57068;BME280;43391;47.448;18.904;2023-05-02T07:09:16;99863.50;;;17.23;53.19
57068;BME280;43391;47.448;18.904;2023-05-02T07:11:42;99869.72;;;17.33;53.68
57068;BME280;43391;47.448;18.904;2023-05-02T07:14:07;99870.09;;;17.51;53.04
57068;BME280;43391;47.448;18.904;2023-05-02T07:16:33;99865.59;;;17.65;53.01
57068;BME280;43391;47.448;18.904;2023-05-02T07:18:58;99865.28;;;17.81;53.48
57068;BME280;43391;47.448;18.904;2023-05-02T07:21:24;99862.41;;;17.96;52.99
57068;BME280;43391;47.448;18.904;2023-05-02T07:23:49;99872.97;;;18.07;51.90
57068;BME280;43391;47.448;18.904;2023-05-02T07:26:15;99869.97;;;18.12;52.71
57068;BME280;43391;47.448;18.904;2023-05-02T07:28:43;99865.53;;;18.24;51.59
57068;BME280;43391;47.448;18.904;2023-05-02T07:31:08;99869.91;;;18.46;51.76
57068;BME280;43391;47.448;18.904;2023-05-02T07:33:33;99876.38;;;18.53;50.45
57068;BME280;43391;47.448;18.904;2023-05-02T07:36:00;99870.50;;;18.61;49.87
57068;BME280;43391;47.448;18.904;2023-05-02T07:38:26;99876.94;;;18.68;51.24
57068;BME280;43391;47.448;18.904;2023-05-02T07:40:51;99877.16;;;18.77;51.02
57068;BME280;43391;47.448;18.904;2023-05-02T07:43:17;99876.28;;;18.88;50.21
57068;BME280;43391;47.448;18.904;2023-05-02T07:45:42;99871.00;;;18.88;50.51
57068;BME280;43391;47.448;18.904;2023-05-02T07:48:07;99875.06;;;18.92;50.14
57068;BME280;43391;47.448;18.904;2023-05-02T07:50:33;99872.75;;;19.10;50.27
57068;BME280;43391;47.448;18.904;2023-05-02T07:52:58;99876.94;;;19.01;49.87
57068;BME280;43391;47.448;18.904;2023-05-02T07:55:24;99874.09;;;19.04;50.82
57068;BME280;43391;47.448;18.904;2023-05-02T07:57:51;99875.34;;;19.21;49.18
57068;BME280;43391;47.448;18.904;2023-05-02T08:00:16;99867.25;;;19.34;49.21
57068;BME280;43391;47.448;18.904;2023-05-02T08:02:42;99873.69;;;19.42;48.34
57068;BME280;43391;47.448;18.904;2023-05-02T08:05:08;99877.69;;;19.57;48.79
57068;BME280;43391;47.448;18.904;2023-05-02T08:07:33;99874.88;;;19.80;48.67
57068;BME280;43391;47.448;18.904;2023-05-02T08:10:02;99862.66;;;20.00;47.48
57068;BME280;43391;47.448;18.904;2023-05-02T08:12:27;99881.84;;;19.91;46.46
57068;BME280;43391;47.448;18.904;2023-05-02T08:14:53;99874.69;;;19.72;46.37
57068;BME280;43391;47.448;18.904;2023-05-02T08:17:18;99877.16;;;19.63;45.97
57068;BME280;43391;47.448;18.904;2023-05-02T08:19:44;99876.31;;;19.63;46.44
57068;BME280;43391;47.448;18.904;2023-05-02T08:22:09;99878.19;;;19.82;47.02
57068;BME280;43391;47.448;18.904;2023-05-02T08:24:35;99881.94;;;20.01;46.73
57068;BME280;43391;47.448;18.904;2023-05-02T08:27:00;99880.44;;;20.08;45.79
57068;BME280;43391;47.448;18.904;2023-05-02T08:29:28;99875.34;;;19.95;45.87
57068;BME280;43391;47.448;18.904;2023-05-02T08:31:54;99875.75;;;19.90;46.52
57068;BME280;43391;47.448;18.904;2023-05-02T08:34:19;99879.19;;;20.02;45.51
57068;BME280;43391;47.448;18.904;2023-05-02T08:36:46;99871.28;;;20.02;45.22
57068;BME280;43391;47.448;18.904;2023-05-02T08:39:11;99868.66;;;20.02;45.46
57068;BME280;43391;47.448;18.904;2023-05-02T08:41:37;99869.78;;;20.20;44.54
57068;BME280;43391;47.448;18.904;2023-05-02T08:44:05;99873.47;;;20.48;44.53
57068;BME280;43391;47.448;18.904;2023-05-02T08:46:31;99866.97;;;20.62;44.47
57068;BME280;43391;47.448;18.904;2023-05-02T08:49:00;99862.84;;;20.79;44.55
57068;BME280;43391;47.448;18.904;2023-05-02T08:51:26;99868.16;;;20.99;45.07
57068;BME280;43391;47.448;18.904;2023-05-02T08:53:53;99867.72;;;21.04;44.63
57068;BME280;43391;47.448;18.904;2023-05-02T08:56:19;99862.06;;;21.08;43.72
57068;BME280;43391;47.448;18.904;2023-05-02T08:58:45;99861.63;;;21.13;44.24
57068;BME280;43391;47.448;18.904;2023-05-02T09:01:13;99858.41;;;21.19;44.13
57068;BME280;43391;47.448;18.904;2023-05-02T09:03:39;99864.28;;;21.23;44.09
57068;BME280;43391;47.448;18.904;2023-05-02T09:06:11;99862.06;;;21.28;44.79
57068;BME280;43391;47.448;18.904;2023-05-02T09:08:38;99861.28;;;21.56;44.09
57068;BME280;43391;47.448;18.904;2023-05-02T09:11:04;99866.41;;;21.67;43.25
57068;BME280;43391;47.448;18.904;2023-05-02T09:13:41;99864.97;;;21.93;43.92
57068;BME280;43391;47.448;18.904;2023-05-02T09:16:20;99857.97;;;22.29;42.04
57068;BME280;43391;47.448;18.904;2023-05-02T09:18:54;99860.97;;;22.45;43.02
57068;BME280;43391;47.448;18.904;2023-05-02T09:21:24;99847.19;;;22.41;40.87
57068;BME280;43391;47.448;18.904;2023-05-02T09:23:55;99856.56;;;22.35;40.71
57068;BME280;43391;47.448;18.904;2023-05-02T09:26:26;99861.59;;;22.28;40.38
57068;BME280;43391;47.448;18.904;2023-05-02T09:29:03;99855.63;;;22.26;39.64
57068;BME280;43391;47.448;18.904;2023-05-02T09:31:33;99852.78;;;22.10;40.37
57068;BME280;43391;47.448;18.904;2023-05-02T09:34:12;99856.31;;;22.28;40.75
57068;BME280;43391;47.448;18.904;2023-05-02T09:36:45;99860.66;;;22.48;40.15
57068;BME280;43391;47.448;18.904;2023-05-02T09:39:12;99861.91;;;22.53;40.50
57068;BME280;43391;47.448;18.904;2023-05-02T09:41:40;99862.31;;;22.49;39.48
57068;BME280;43391;47.448;18.904;2023-05-02T09:44:09;99861.38;;;22.40;39.12
57068;BME280;43391;47.448;18.904;2023-05-02T09:46:39;99864.94;;;22.49;39.14
57068;BME280;43391;47.448;18.904;2023-05-02T09:49:05;99862.09;;;22.42;38.91
57068;BME280;43391;47.448;18.904;2023-05-02T09:51:31;99857.47;;;22.44;39.84
57068;BME280;43391;47.448;18.904;2023-05-02T09:53:56;99853.47;;;22.40;39.48
57068;BME280;43391;47.448;18.904;2023-05-02T09:56:22;99857.16;;;22.57;39.27
57068;BME280;43391;47.448;18.904;2023-05-02T09:58:47;99848.16;;;22.68;39.43
57068;BME280;43391;47.448;18.904;2023-05-02T10:01:16;99853.09;;;22.63;38.60
57068;BME280;43391;47.448;18.904;2023-05-02T10:03:46;99858.00;;;22.58;37.94
57068;BME280;43391;47.448;18.904;2023-05-02T10:06:12;99844.44;;;22.61;37.59
57068;BME280;43391;47.448;18.904;2023-05-02T10:08:38;99860.56;;;22.67;38.34
57068;BME280;43391;47.448;18.904;2023-05-02T10:11:06;99846.75;;;22.46;37.53
57068;BME280;43391;47.448;18.904;2023-05-02T10:13:32;99859.50;;;22.50;38.94
57068;BME280;43391;47.448;18.904;2023-05-02T10:16:05;99847.56;;;22.74;38.09
57068;BME280;43391;47.448;18.904;2023-05-02T10:18:51;99841.13;;;22.95;38.23
57068;BME280;43391;47.448;18.904;2023-05-02T10:21:24;99846.31;;;23.05;37.20
57068;BME280;43391;47.448;18.904;2023-05-02T10:23:51;99846.56;;;23.12;37.76
57068;BME280;43391;47.448;18.904;2023-05-02T10:26:17;99848.94;;;23.23;37.54
57068;BME280;43391;47.448;18.904;2023-05-02T10:28:45;99853.72;;;23.38;37.96
57068;BME280;43391;47.448;18.904;2023-05-02T10:31:11;99838.34;;;23.41;36.89
57068;BME280;43391;47.448;18.904;2023-05-02T10:33:38;99841.72;;;23.52;36.98
57068;BME280;43391;47.448;18.904;2023-05-02T10:36:06;99837.41;;;23.51;36.69
57068;BME280;43391;47.448;18.904;2023-05-02T10:38:32;99844.59;;;23.58;37.23
57068;BME280;43391;47.448;18.904;2023-05-02T10:41:02;99837.94;;;23.54;37.15
57068;BME280;43391;47.448;18.904;2023-05-02T10:43:33;99841.09;;;23.58;37.72
57068;BME280;43391;47.448;18.904;2023-05-02T10:45:59;99837.22;;;23.44;37.16
57068;BME280;43391;47.448;18.904;2023-05-02T10:48:27;99842.13;;;23.65;38.09
57068;BME280;43391;47.448;18.904;2023-05-02T10:50:57;99846.19;;;24.12;37.30
57068;BME280;43391;47.448;18.904;2023-05-02T10:53:34;99848.38;;;24.34;36.53
57068;BME280;43391;47.448;18.904;2023-05-02T10:56:18;99839.13;;;24.30;36.00
57068;BME280;43391;47.448;18.904;2023-05-02T10:58:49;99833.47;;;24.33;36.49
57068;BME280;43391;47.448;18.904;2023-05-02T11:06:26;99836.63;;;24.28;36.13
57068;BME280;43391;47.448;18.904;2023-05-02T11:08:51;99829.34;;;23.87;37.72
57068;BME280;43391;47.448;18.904;2023-05-02T11:11:39;99831.97;;;23.87;37.22
57068;BME280;43391;47.448;18.904;2023-05-02T11:14:05;99835.25;;;23.81;37.25
57068;BME280;43391;47.448;18.904;2023-05-02T11:19:24;99815.97;;;23.70;38.42
57068;BME280;43391;47.448;18.904;2023-05-02T11:21:50;99825.34;;;23.83;37.59
57068;BME280;43391;47.448;18.904;2023-05-02T11:24:40;99816.59;;;23.91;37.54
57068;BME280;43391;47.448;18.904;2023-05-02T11:35:20;99813.47;;;25.30;36.64
57068;BME280;43391;47.448;18.904;2023-05-02T11:40:21;99805.34;;;25.23;35.06
57068;BME280;43391;47.448;18.904;2023-05-02T11:42:47;99809.16;;;25.20;34.50
57068;BME280;43391;47.448;18.904;2023-05-02T11:45:12;99808.69;;;25.17;35.27
57068;BME280;43391;47.448;18.904;2023-05-02T11:47:38;99798.22;;;24.65;33.72
57068;BME280;43391;47.448;18.904;2023-05-02T11:50:04;99798.88;;;24.59;34.07
57068;BME280;43391;47.448;18.904;2023-05-02T11:52:36;99799.88;;;24.75;34.90
57068;BME280;43391;47.448;18.904;2023-05-02T11:55:04;99800.88;;;25.15;33.12
57068;BME280;43391;47.448;18.904;2023-05-02T11:57:32;99800.69;;;25.33;33.17
57068;BME280;43391;47.448;18.904;2023-05-02T11:59:57;99804.56;;;25.79;33.82
57068;BME280;43391;47.448;18.904;2023-05-02T12:02:39;99802.97;;;26.02;30.88
57068;BME280;43391;47.448;18.904;2023-05-02T12:05:06;99800.25;;;26.10;31.17
57068;BME280;43391;47.448;18.904;2023-05-02T12:07:43;99805.09;;;25.74;30.86
57068;BME280;43391;47.448;18.904;2023-05-02T12:10:13;99793.41;;;25.19;32.02
57068;BME280;43391;47.448;18.904;2023-05-02T12:12:42;99786.25;;;25.19;31.59
57068;BME280;43391;47.448;18.904;2023-05-02T12:15:09;99799.34;;;25.46;32.65
57068;BME280;43391;47.448;18.904;2023-05-02T12:17:40;99795.78;;;25.70;30.49
57068;BME280;43391;47.448;18.904;2023-05-02T12:20:08;99794.31;;;25.68;31.78
57068;BME280;43391;47.448;18.904;2023-05-02T12:22:34;99803.88;;;25.85;30.40
57068;BME280;43391;47.448;18.904;2023-05-02T12:25:00;99792.09;;;25.80;30.04
57068;BME280;43391;47.448;18.904;2023-05-02T12:27:28;99791.09;;;25.81;31.09
57068;BME280;43391;47.448;18.904;2023-05-02T12:29:53;99786.34;;;25.99;30.28
57068;BME280;43391;47.448;18.904;2023-05-02T12:32:30;99782.13;;;25.82;30.02
57068;BME280;43391;47.448;18.904;2023-05-02T12:34:57;99790.69;;;25.60;30.58
57068;BME280;43391;47.448;18.904;2023-05-02T12:37:24;99789.72;;;25.28;29.97
57068;BME280;43391;47.448;18.904;2023-05-02T12:39:50;99786.00;;;24.89;30.59
57068;BME280;43391;47.448;18.904;2023-05-02T12:42:18;99795.56;;;24.49;31.64
57068;BME280;43391;47.448;18.904;2023-05-02T12:44:46;99793.47;;;24.09;32.74
57068;BME280;43391;47.448;18.904;2023-05-02T12:47:13;99797.00;;;23.83;33.88
57068;BME280;43391;47.448;18.904;2023-05-02T12:49:54;99792.31;;;23.69;33.86
57068;BME280;43391;47.448;18.904;2023-05-02T12:52:46;99781.09;;;23.48;34.81
57068;BME280;43391;47.448;18.904;2023-05-02T12:55:19;99785.75;;;23.46;35.26
57068;BME280;43391;47.448;18.904;2023-05-02T12:57:45;99782.09;;;23.47;34.61
57068;BME280;43391;47.448;18.904;2023-05-02T13:00:11;99776.66;;;23.49;35.36
57068;BME280;43391;47.448;18.904;2023-05-02T13:02:37;99776.00;;;23.47;35.83
57068;BME280;43391;47.448;18.904;2023-05-02T13:05:13;99777.78;;;23.46;35.14
57068;BME280;43391;47.448;18.904;2023-05-02T13:07:38;99774.44;;;23.36;35.29
57068;BME280;43391;47.448;18.904;2023-05-02T13:10:04;99771.28;;;23.32;35.16
57068;BME280;43391;47.448;18.904;2023-05-02T13:12:29;99763.56;;;23.21;34.55
57068;BME280;43391;47.448;18.904;2023-05-02T13:14:55;99772.66;;;23.18;34.75
57068;BME280;43391;47.448;18.904;2023-05-02T13:17:20;99768.00;;;23.20;33.96
57068;BME280;43391;47.448;18.904;2023-05-02T13:19:46;99770.16;;;23.17;34.27
57068;BME280;43391;47.448;18.904;2023-05-02T13:22:11;99766.44;;;23.09;33.84
57068;BME280;43391;47.448;18.904;2023-05-02T13:24:37;99764.16;;;23.15;33.73
57068;BME280;43391;47.448;18.904;2023-05-02T13:27:02;99768.50;;;23.16;34.14
57068;BME280;43391;47.448;18.904;2023-05-02T13:29:27;99768.84;;;23.21;34.27